sensor_id;sensor_type;location;lat;lon;timestamp;P1;durP1;ratioP1;P2;durP2;ratioP2
21636;SDS011;10980;49.596;6.142;2022-07-29T00:02:35;3.13;;;2.00;;
21636;SDS011;10980;49.596;6.142;2022-07-29T00:05:57;4.80;;;2.20;;
21636;SDS011;10980;49.596;6.142;2022-07-29T00:09:20;7.10;;;2.65;;
21636;SDS011;10980;49.596;6.142;2022-07-29T00:12:42;5.47;;;2.00;;
21636;SDS011;10980;49.596;6.142;2022-07-29T00:16:04;5.47;;;2.10;;
21636;SDS011;10980;49.596;6.142;2022-07-29T00:19:26;5.18;;;2.25;;
21636;SDS011;10980;49.596;6.142;2022-07-29T00:22:48;6.47;;;1.98;;
21636;SDS011;10980;49.596;6.142;2022-07-29T00:26:10;7.10;;;1.77;;
21636;SDS011;10980;49.596;6.142;2022-07-29T00:29:32;7.28;;;2.28;;
21636;SDS011;10980;49.596;6.142;2022-07-29T00:32:55;9.45;;;2.67;;
21636;SDS011;10980;49.596;6.142;2022-07-29T00:36:17;6.72;;;2.30;;
21636;SDS011;10980;49.596;6.142;2022-07-29T00:39:39;8.77;;;2.20;;
21636;SDS011;10980;49.596;6.142;2022-07-29T00:43:01;8.70;;;2.60;;
21636;SDS011;10980;49.596;6.142;2022-07-29T00:46:23;7.32;;;2.65;;
21636;SDS011;10980;49.596;6.142;2022-07-29T00:49:45;9.65;;;2.70;;
21636;SDS011;10980;49.596;6.142;2022-07-29T00:53:07;7.03;;;2.50;;
21636;SDS011;10980;49.596;6.142;2022-07-29T00:56:29;7.68;;;2.40;;
21636;SDS011;10980;49.596;6.142;2022-07-29T00:59:52;4.57;;;2.40;;
21636;SDS011;10980;49.596;6.142;2022-07-29T01:03:13;3.42;;;2.47;;
21636;SDS011;10980;49.596;6.142;2022-07-29T01:06:35;7.68;;;2.50;;
21636;SDS011;10980;49.596;6.142;2022-07-29T01:09:57;5.20;;;2.47;;
21636;SDS011;10980;49.596;6.142;2022-07-29T01:13:21;5.25;;;2.28;;
21636;SDS011;10980;49.596;6.142;2022-07-29T01:16:46;5.68;;;2.97;;
21636;SDS011;10980;49.596;6.142;2022-07-29T01:20:25;5.60;;;2.58;;
21636;SDS011;10980;49.596;6.142;2022-07-29T01:27:43;6.00;;;2.60;;
21636;SDS011;10980;49.596;6.142;2022-07-29T01:31:16;7.75;;;3.00;;
21636;SDS011;10980;49.596;6.142;2022-07-29T01:34:48;7.32;;;2.90;;
21636;SDS011;10980;49.596;6.142;2022-07-29T01:38:19;5.85;;;2.90;;
21636;SDS011;10980;49.596;6.142;2022-07-29T01:41:56;6.35;;;3.00;;
21636;SDS011;10980;49.596;6.142;2022-07-29T01:45:38;9.02;;;2.90;;
21636;SDS011;10980;49.596;6.142;2022-07-29T01:49:11;11.57;;;3.00;;
21636;SDS011;10980;49.596;6.142;2022-07-29T01:52:42;10.13;;;3.05;;
21636;SDS011;10980;49.596;6.142;2022-07-29T01:56:10;7.88;;;2.80;;
21636;SDS011;10980;49.596;6.142;2022-07-29T01:59:33;6.68;;;2.85;;
21636;SDS011;10980;49.596;6.142;2022-07-29T02:02:57;5.93;;;2.80;;
21636;SDS011;10980;49.596;6.142;2022-07-29T02:06:23;5.13;;;2.80;;
21636;SDS011;10980;49.596;6.142;2022-07-29T02:09:47;13.05;;;2.97;;
21636;SDS011;10980;49.596;6.142;2022-07-29T02:13:11;7.15;;;3.50;;
21636;SDS011;10980;49.596;6.142;2022-07-29T02:16:34;13.45;;;3.40;;
21636;SDS011;10980;49.596;6.142;2022-07-29T02:20:00;8.35;;;3.17;;
21636;SDS011;10980;49.596;6.142;2022-07-29T02:23:25;6.13;;;2.90;;
21636;SDS011;10980;49.596;6.142;2022-07-29T02:26:47;9.18;;;3.17;;
21636;SDS011;10980;49.596;6.142;2022-07-29T02:30:12;5.30;;;3.47;;
21636;SDS011;10980;49.596;6.142;2022-07-29T02:33:34;5.13;;;3.22;;
21636;SDS011;10980;49.596;6.142;2022-07-29T02:36:58;14.43;;;3.63;;
21636;SDS011;10980;49.596;6.142;2022-07-29T02:40:21;6.18;;;2.75;;
21636;SDS011;10980;49.596;6.142;2022-07-29T02:43:43;6.22;;;2.92;;
21636;SDS011;10980;49.596;6.142;2022-07-29T02:47:13;4.00;;;2.83;;
21636;SDS011;10980;49.596;6.142;2022-07-29T02:50:50;5.78;;;2.92;;
21636;SDS011;10980;49.596;6.142;2022-07-29T02:54:51;8.43;;;3.03;;
21636;SDS011;10980;49.596;6.142;2022-07-29T02:58:15;11.23;;;3.15;;
21636;SDS011;10980;49.596;6.142;2022-07-29T03:01:50;11.18;;;3.33;;
21636;SDS011;10980;49.596;6.142;2022-07-29T03:05:15;11.80;;;3.30;;
21636;SDS011;10980;49.596;6.142;2022-07-29T03:08:39;6.00;;;3.10;;
21636;SDS011;10980;49.596;6.142;2022-07-29T03:12:02;5.07;;;3.28;;
21636;SDS011;10980;49.596;6.142;2022-07-29T03:15:25;5.00;;;2.90;;
21636;SDS011;10980;49.596;6.142;2022-07-29T03:18:48;11.10;;;3.55;;
21636;SDS011;10980;49.596;6.142;2022-07-29T03:22:10;8.43;;;3.20;;
21636;SDS011;10980;49.596;6.142;2022-07-29T03:25:32;4.88;;;2.80;;
21636;SDS011;10980;49.596;6.142;2022-07-29T03:28:54;5.97;;;2.80;;
21636;SDS011;10980;49.596;6.142;2022-07-29T03:32:16;7.15;;;2.67;;
21636;SDS011;10980;49.596;6.142;2022-07-29T03:35:46;8.32;;;3.15;;
21636;SDS011;10980;49.596;6.142;2022-07-29T03:39:09;3.85;;;3.05;;
21636;SDS011;10980;49.596;6.142;2022-07-29T03:42:33;7.05;;;3.35;;
21636;SDS011;10980;49.596;6.142;2022-07-29T03:45:59;10.65;;;3.10;;
21636;SDS011;10980;49.596;6.142;2022-07-29T03:49:22;6.90;;;3.70;;
21636;SDS011;10980;49.596;6.142;2022-07-29T03:52:46;4.65;;;3.33;;
21636;SDS011;10980;49.596;6.142;2022-07-29T03:56:08;7.20;;;3.40;;
21636;SDS011;10980;49.596;6.142;2022-07-29T03:59:36;6.57;;;2.80;;
21636;SDS011;10980;49.596;6.142;2022-07-29T04:02:59;6.72;;;3.20;;
21636;SDS011;10980;49.596;6.142;2022-07-29T04:06:21;7.10;;;3.55;;
21636;SDS011;10980;49.596;6.142;2022-07-29T04:09:42;7.75;;;3.25;;
21636;SDS011;10980;49.596;6.142;2022-07-29T04:13:04;6.35;;;3.50;;
21636;SDS011;10980;49.596;6.142;2022-07-29T04:16:26;7.68;;;3.40;;
21636;SDS011;10980;49.596;6.142;2022-07-29T04:19:48;6.95;;;3.10;;
21636;SDS011;10980;49.596;6.142;2022-07-29T04:23:10;9.35;;;3.50;;
21636;SDS011;10980;49.596;6.142;2022-07-29T04:26:32;15.05;;;3.92;;
21636;SDS011;10980;49.596;6.142;2022-07-29T04:29:55;8.45;;;3.67;;
21636;SDS011;10980;49.596;6.142;2022-07-29T04:33:17;15.23;;;4.43;;
21636;SDS011;10980;49.596;6.142;2022-07-29T04:36:39;8.80;;;3.33;;
21636;SDS011;10980;49.596;6.142;2022-07-29T04:40:01;8.77;;;3.40;;
21636;SDS011;10980;49.596;6.142;2022-07-29T04:43:23;15.40;;;3.95;;
21636;SDS011;10980;49.596;6.142;2022-07-29T04:46:45;6.00;;;3.58;;
21636;SDS011;10980;49.596;6.142;2022-07-29T04:50:07;9.05;;;3.92;;
21636;SDS011;10980;49.596;6.142;2022-07-29T04:53:29;7.18;;;4.10;;
21636;SDS011;10980;49.596;6.142;2022-07-29T04:56:51;8.02;;;4.15;;
21636;SDS011;10980;49.596;6.142;2022-07-29T05:00:13;11.05;;;4.10;;
21636;SDS011;10980;49.596;6.142;2022-07-29T05:03:35;13.35;;;4.47;;
21636;SDS011;10980;49.596;6.142;2022-07-29T05:06:57;12.43;;;4.15;;
21636;SDS011;10980;49.596;6.142;2022-07-29T05:10:19;13.55;;;3.55;;
21636;SDS011;10980;49.596;6.142;2022-07-29T05:13:41;10.00;;;4.07;;
21636;SDS011;10980;49.596;6.142;2022-07-29T05:17:07;7.38;;;3.40;;
21636;SDS011;10980;49.596;6.142;2022-07-29T05:20:29;6.35;;;3.60;;
21636;SDS011;10980;49.596;6.142;2022-07-29T05:23:51;8.10;;;3.08;;
21636;SDS011;10980;49.596;6.142;2022-07-29T05:27:13;11.93;;;3.85;;
21636;SDS011;10980;49.596;6.142;2022-07-29T05:30:35;14.10;;;3.83;;
21636;SDS011;10980;49.596;6.142;2022-07-29T05:33:57;8.23;;;3.60;;
21636;SDS011;10980;49.596;6.142;2022-07-29T05:37:19;10.32;;;3.45;;
21636;SDS011;10980;49.596;6.142;2022-07-29T05:40:41;14.60;;;4.05;;
21636;SDS011;10980;49.596;6.142;2022-07-29T05:44:02;8.57;;;4.07;;
21636;SDS011;10980;49.596;6.142;2022-07-29T05:47:24;10.80;;;3.45;;
21636;SDS011;10980;49.596;6.142;2022-07-29T05:50:47;7.75;;;3.83;;
21636;SDS011;10980;49.596;6.142;2022-07-29T05:54:08;10.57;;;4.00;;
21636;SDS011;10980;49.596;6.142;2022-07-29T05:57:30;7.35;;;3.95;;
21636;SDS011;10980;49.596;6.142;2022-07-29T06:00:53;7.47;;;3.60;;
21636;SDS011;10980;49.596;6.142;2022-07-29T06:04:15;13.90;;;4.63;;
21636;SDS011;10980;49.596;6.142;2022-07-29T06:07:37;7.22;;;3.72;;
21636;SDS011;10980;49.596;6.142;2022-07-29T06:11:10;11.32;;;4.57;;
21636;SDS011;10980;49.596;6.142;2022-07-29T06:14:32;12.20;;;4.85;;
21636;SDS011;10980;49.596;6.142;2022-07-29T06:17:54;10.88;;;3.80;;
21636;SDS011;10980;49.596;6.142;2022-07-29T06:21:21;11.57;;;3.42;;
21636;SDS011;10980;49.596;6.142;2022-07-29T06:24:43;8.52;;;4.28;;
21636;SDS011;10980;49.596;6.142;2022-07-29T06:28:05;14.15;;;4.00;;
21636;SDS011;10980;49.596;6.142;2022-07-29T06:31:26;13.20;;;4.60;;
21636;SDS011;10980;49.596;6.142;2022-07-29T06:34:48;12.00;;;4.70;;
21636;SDS011;10980;49.596;6.142;2022-07-29T06:38:11;10.02;;;3.90;;
21636;SDS011;10980;49.596;6.142;2022-07-29T06:41:50;27.65;;;4.53;;
21636;SDS011;10980;49.596;6.142;2022-07-29T06:45:18;11.02;;;3.78;;
21636;SDS011;10980;49.596;6.142;2022-07-29T06:48:40;9.65;;;2.90;;
21636;SDS011;10980;49.596;6.142;2022-07-29T06:52:03;11.25;;;3.80;;
21636;SDS011;10980;49.596;6.142;2022-07-29T06:55:25;18.13;;;4.28;;
21636;SDS011;10980;49.596;6.142;2022-07-29T06:58:47;8.63;;;3.72;;
21636;SDS011;10980;49.596;6.142;2022-07-29T07:02:09;8.88;;;3.45;;
21636;SDS011;10980;49.596;6.142;2022-07-29T07:05:30;8.35;;;3.15;;
21636;SDS011;10980;49.596;6.142;2022-07-29T07:08:52;5.22;;;3.25;;
21636;SDS011;10980;49.596;6.142;2022-07-29T07:12:14;11.93;;;3.78;;
21636;SDS011;10980;49.596;6.142;2022-07-29T07:15:37;11.27;;;3.72;;
21636;SDS011;10980;49.596;6.142;2022-07-29T07:19:00;12.15;;;4.15;;
21636;SDS011;10980;49.596;6.142;2022-07-29T07:22:22;8.73;;;3.95;;
21636;SDS011;10980;49.596;6.142;2022-07-29T07:25:44;9.65;;;4.28;;
21636;SDS011;10980;49.596;6.142;2022-07-29T07:29:06;13.35;;;3.90;;
21636;SDS011;10980;49.596;6.142;2022-07-29T07:32:27;8.98;;;3.63;;
21636;SDS011;10980;49.596;6.142;2022-07-29T07:35:49;10.55;;;4.30;;
21636;SDS011;10980;49.596;6.142;2022-07-29T07:39:11;17.88;;;5.10;;
21636;SDS011;10980;49.596;6.142;2022-07-29T07:42:33;9.70;;;3.92;;
21636;SDS011;10980;49.596;6.142;2022-07-29T07:45:55;11.32;;;4.53;;
21636;SDS011;10980;49.596;6.142;2022-07-29T07:49:17;8.95;;;4.45;;
21636;SDS011;10980;49.596;6.142;2022-07-29T07:52:51;8.88;;;4.82;;
21636;SDS011;10980;49.596;6.142;2022-07-29T07:56:16;9.02;;;4.43;;
21636;SDS011;10980;49.596;6.142;2022-07-29T07:59:38;10.20;;;4.00;;
21636;SDS011;10980;49.596;6.142;2022-07-29T08:03:00;9.80;;;3.97;;
21636;SDS011;10980;49.596;6.142;2022-07-29T08:06:22;10.25;;;4.10;;
21636;SDS011;10980;49.596;6.142;2022-07-29T08:09:46;12.38;;;4.28;;
21636;SDS011;10980;49.596;6.142;2022-07-29T08:13:08;11.05;;;4.13;;
21636;SDS011;10980;49.596;6.142;2022-07-29T08:16:31;12.90;;;4.30;;
21636;SDS011;10980;49.596;6.142;2022-07-29T08:19:53;7.53;;;3.95;;
21636;SDS011;10980;49.596;6.142;2022-07-29T08:23:15;6.78;;;3.80;;
21636;SDS011;10980;49.596;6.142;2022-07-29T08:26:37;11.27;;;3.45;;
21636;SDS011;10980;49.596;6.142;2022-07-29T08:29:59;10.23;;;3.30;;
21636;SDS011;10980;49.596;6.142;2022-07-29T08:33:21;6.97;;;3.70;;
21636;SDS011;10980;49.596;6.142;2022-07-29T08:36:42;9.20;;;3.38;;
21636;SDS011;10980;49.596;6.142;2022-07-29T08:40:10;5.40;;;3.35;;
21636;SDS011;10980;49.596;6.142;2022-07-29T08:43:33;9.07;;;3.72;;
21636;SDS011;10980;49.596;6.142;2022-07-29T08:46:58;9.20;;;3.58;;
21636;SDS011;10980;49.596;6.142;2022-07-29T08:50:20;4.78;;;3.50;;
21636;SDS011;10980;49.596;6.142;2022-07-29T08:53:42;8.40;;;3.47;;
21636;SDS011;10980;49.596;6.142;2022-07-29T08:57:06;9.43;;;3.20;;
21636;SDS011;10980;49.596;6.142;2022-07-29T09:00:29;11.38;;;4.03;;
21636;SDS011;10980;49.596;6.142;2022-07-29T09:03:51;7.70;;;3.25;;
21636;SDS011;10980;49.596;6.142;2022-07-29T09:07:17;8.10;;;3.10;;
21636;SDS011;10980;49.596;6.142;2022-07-29T09:10:39;5.75;;;3.03;;
21636;SDS011;10980;49.596;6.142;2022-07-29T09:14:01;8.48;;;3.50;;
21636;SDS011;10980;49.596;6.142;2022-07-29T09:17:39;5.30;;;3.03;;
21636;SDS011;10980;49.596;6.142;2022-07-29T09:21:09;7.03;;;2.88;;
21636;SDS011;10980;49.596;6.142;2022-07-29T09:24:50;6.07;;;2.67;;
21636;SDS011;10980;49.596;6.142;2022-07-29T09:28:13;6.97;;;3.00;;
21636;SDS011;10980;49.596;6.142;2022-07-29T09:31:38;4.35;;;3.00;;
21636;SDS011;10980;49.596;6.142;2022-07-29T09:35:14;6.63;;;3.15;;
21636;SDS011;10980;49.596;6.142;2022-07-29T09:38:43;6.63;;;2.88;;
21636;SDS011;10980;49.596;6.142;2022-07-29T09:42:28;5.70;;;2.38;;
21636;SDS011;10980;49.596;6.142;2022-07-29T09:45:50;8.85;;;2.72;;
21636;SDS011;10980;49.596;6.142;2022-07-29T09:49:12;10.80;;;2.80;;
21636;SDS011;10980;49.596;6.142;2022-07-29T09:52:43;7.47;;;2.70;;
21636;SDS011;10980;49.596;6.142;2022-07-29T09:56:07;8.27;;;2.40;;
21636;SDS011;10980;49.596;6.142;2022-07-29T09:59:32;4.35;;;2.13;;
21636;SDS011;10980;49.596;6.142;2022-07-29T10:02:54;12.50;;;2.85;;
21636;SDS011;10980;49.596;6.142;2022-07-29T10:06:23;6.18;;;2.20;;
21636;SDS011;10980;49.596;6.142;2022-07-29T10:09:55;5.70;;;2.80;;
21636;SDS011;10980;49.596;6.142;2022-07-29T10:13:18;5.45;;;2.50;;
21636;SDS011;10980;49.596;6.142;2022-07-29T10:16:39;5.40;;;2.30;;
21636;SDS011;10980;49.596;6.142;2022-07-29T10:20:02;5.00;;;2.60;;
21636;SDS011;10980;49.596;6.142;2022-07-29T10:23:24;6.50;;;2.53;;
21636;SDS011;10980;49.596;6.142;2022-07-29T10:26:45;4.75;;;3.08;;
21636;SDS011;10980;49.596;6.142;2022-07-29T10:30:09;8.75;;;2.45;;
21636;SDS011;10980;49.596;6.142;2022-07-29T10:37:08;4.15;;;2.53;;
21636;SDS011;10980;49.596;6.142;2022-07-29T10:40:45;10.48;;;2.80;;
21636;SDS011;10980;49.596;6.142;2022-07-29T10:44:28;9.45;;;2.72;;
21636;SDS011;10980;49.596;6.142;2022-07-29T10:48:02;10.50;;;2.63;;
21636;SDS011;10980;49.596;6.142;2022-07-29T10:51:50;7.00;;;2.60;;
21636;SDS011;10980;49.596;6.142;2022-07-29T11:02:44;4.53;;;2.40;;
21636;SDS011;10980;49.596;6.142;2022-07-29T11:06:10;20.30;;;3.45;;
21636;SDS011;10980;49.596;6.142;2022-07-29T11:09:33;5.72;;;2.33;;
21636;SDS011;10980;49.596;6.142;2022-07-29T11:12:58;9.82;;;2.28;;
21636;SDS011;10980;49.596;6.142;2022-07-29T11:16:20;23.60;;;3.38;;
21636;SDS011;10980;49.596;6.142;2022-07-29T11:19:45;11.07;;;3.05;;
21636;SDS011;10980;49.596;6.142;2022-07-29T11:30:48;9.73;;;2.83;;
21636;SDS011;10980;49.596;6.142;2022-07-29T11:34:17;11.65;;;2.05;;
21636;SDS011;10980;49.596;6.142;2022-07-29T11:41:43;13.18;;;2.50;;
21636;SDS011;10980;49.596;6.142;2022-07-29T11:48:56;8.15;;;2.40;;
21636;SDS011;10980;49.596;6.142;2022-07-29T11:52:20;8.25;;;2.20;;
21636;SDS011;10980;49.596;6.142;2022-07-29T11:55:43;11.50;;;2.50;;
21636;SDS011;10980;49.596;6.142;2022-07-29T11:59:12;13.05;;;2.45;;
21636;SDS011;10980;49.596;6.142;2022-07-29T12:02:41;4.10;;;1.92;;
21636;SDS011;10980;49.596;6.142;2022-07-29T12:06:12;8.88;;;2.30;;
21636;SDS011;10980;49.596;6.142;2022-07-29T12:09:38;5.68;;;2.00;;
21636;SDS011;10980;49.596;6.142;2022-07-29T12:13:02;5.47;;;2.33;;
21636;SDS011;10980;49.596;6.142;2022-07-29T12:16:33;5.22;;;2.28;;
21636;SDS011;10980;49.596;6.142;2022-07-29T12:20:02;7.45;;;1.95;;
21636;SDS011;10980;49.596;6.142;2022-07-29T12:23:25;9.98;;;2.40;;
21636;SDS011;10980;49.596;6.142;2022-07-29T12:26:58;10.63;;;3.10;;
21636;SDS011;10980;49.596;6.142;2022-07-29T12:30:20;8.00;;;2.55;;
21636;SDS011;10980;49.596;6.142;2022-07-29T12:33:42;5.15;;;2.00;;
21636;SDS011;10980;49.596;6.142;2022-07-29T12:37:14;4.72;;;2.38;;
21636;SDS011;10980;49.596;6.142;2022-07-29T12:40:36;5.63;;;2.05;;
21636;SDS011;10980;49.596;6.142;2022-07-29T12:43:58;4.25;;;2.03;;
21636;SDS011;10980;49.596;6.142;2022-07-29T12:47:20;7.75;;;2.00;;
21636;SDS011;10980;49.596;6.142;2022-07-29T12:50:52;7.80;;;2.20;;
21636;SDS011;10980;49.596;6.142;2022-07-29T12:54:18;15.38;;;2.67;;
21636;SDS011;10980;49.596;6.142;2022-07-29T12:57:47;12.63;;;2.90;;
21636;SDS011;10980;49.596;6.142;2022-07-29T13:01:13;6.57;;;2.25;;
21636;SDS011;10980;49.596;6.142;2022-07-29T13:04:39;7.07;;;2.28;;
21636;SDS011;10980;49.596;6.142;2022-07-29T13:08:14;4.30;;;2.05;;
21636;SDS011;10980;49.596;6.142;2022-07-29T13:11:47;4.97;;;1.98;;
21636;SDS011;10980;49.596;6.142;2022-07-29T13:15:11;5.20;;;2.10;;
21636;SDS011;10980;49.596;6.142;2022-07-29T13:18:35;10.02;;;2.03;;
21636;SDS011;10980;49.596;6.142;2022-07-29T13:21:57;14.73;;;2.60;;
21636;SDS011;10980;49.596;6.142;2022-07-29T13:25:27;4.35;;;2.08;;
21636;SDS011;10980;49.596;6.142;2022-07-29T13:28:50;2.67;;;1.85;;
21636;SDS011;10980;49.596;6.142;2022-07-29T13:32:12;7.47;;;2.20;;
21636;SDS011;10980;49.596;6.142;2022-07-29T13:35:34;7.88;;;2.17;;
21636;SDS011;10980;49.596;6.142;2022-07-29T13:39:00;8.43;;;2.10;;
21636;SDS011;10980;49.596;6.142;2022-07-29T13:42:23;9.38;;;2.22;;
21636;SDS011;10980;49.596;6.142;2022-07-29T13:45:46;5.05;;;2.30;;
21636;SDS011;10980;49.596;6.142;2022-07-29T13:49:07;7.32;;;2.05;;
21636;SDS011;10980;49.596;6.142;2022-07-29T13:52:29;11.65;;;2.15;;
21636;SDS011;10980;49.596;6.142;2022-07-29T13:55:51;5.72;;;1.70;;
21636;SDS011;10980;49.596;6.142;2022-07-29T13:59:14;3.33;;;1.70;;
21636;SDS011;10980;49.596;6.142;2022-07-29T14:02:36;8.98;;;2.72;;
21636;SDS011;10980;49.596;6.142;2022-07-29T14:05:59;8.68;;;1.70;;
21636;SDS011;10980;49.596;6.142;2022-07-29T14:09:21;9.68;;;1.75;;
21636;SDS011;10980;49.596;6.142;2022-07-29T14:12:43;5.32;;;1.55;;
21636;SDS011;10980;49.596;6.142;2022-07-29T14:16:05;8.13;;;1.98;;
21636;SDS011;10980;49.596;6.142;2022-07-29T14:19:28;9.93;;;1.83;;
21636;SDS011;10980;49.596;6.142;2022-07-29T14:22:49;2.58;;;1.70;;
21636;SDS011;10980;49.596;6.142;2022-07-29T14:26:11;3.40;;;1.95;;
21636;SDS011;10980;49.596;6.142;2022-07-29T14:29:41;4.18;;;1.98;;
21636;SDS011;10980;49.596;6.142;2022-07-29T14:33:03;6.18;;;1.70;;
21636;SDS011;10980;49.596;6.142;2022-07-29T14:36:25;3.90;;;2.10;;
21636;SDS011;10980;49.596;6.142;2022-07-29T14:39:48;6.53;;;1.60;;
21636;SDS011;10980;49.596;6.142;2022-07-29T14:43:10;4.85;;;1.50;;
21636;SDS011;10980;49.596;6.142;2022-07-29T14:46:32;6.15;;;1.80;;
21636;SDS011;10980;49.596;6.142;2022-07-29T14:49:54;7.40;;;1.75;;
21636;SDS011;10980;49.596;6.142;2022-07-29T14:53:15;6.13;;;1.98;;
21636;SDS011;10980;49.596;6.142;2022-07-29T14:56:37;5.93;;;1.75;;
21636;SDS011;10980;49.596;6.142;2022-07-29T15:00:07;5.43;;;1.90;;
21636;SDS011;10980;49.596;6.142;2022-07-29T15:03:30;3.58;;;1.50;;
21636;SDS011;10980;49.596;6.142;2022-07-29T15:06:54;6.13;;;1.90;;
21636;SDS011;10980;49.596;6.142;2022-07-29T15:10:16;7.88;;;1.88;;
21636;SDS011;10980;49.596;6.142;2022-07-29T15:13:39;3.90;;;1.92;;
21636;SDS011;10980;49.596;6.142;2022-07-29T15:17:00;4.50;;;1.33;;
21636;SDS011;10980;49.596;6.142;2022-07-29T15:20:24;4.05;;;1.67;;
21636;SDS011;10980;49.596;6.142;2022-07-29T15:23:49;7.28;;;1.80;;
21636;SDS011;10980;49.596;6.142;2022-07-29T15:27:10;3.85;;;1.58;;
21636;SDS011;10980;49.596;6.142;2022-07-29T15:30:35;6.20;;;1.77;;
21636;SDS011;10980;49.596;6.142;2022-07-29T15:34:01;5.50;;;1.80;;
21636;SDS011;10980;49.596;6.142;2022-07-29T15:37:26;6.93;;;3.47;;
21636;SDS011;10980;49.596;6.142;2022-07-29T15:41:09;5.75;;;1.88;;
21636;SDS011;10980;49.596;6.142;2022-07-29T15:44:34;5.18;;;1.55;;
21636;SDS011;10980;49.596;6.142;2022-07-29T15:47:56;5.18;;;1.88;;
21636;SDS011;10980;49.596;6.142;2022-07-29T15:51:18;6.78;;;1.73;;
21636;SDS011;10980;49.596;6.142;2022-07-29T15:54:40;11.43;;;1.65;;
21636;SDS011;10980;49.596;6.142;2022-07-29T15:58:03;8.52;;;1.60;;
21636;SDS011;10980;49.596;6.142;2022-07-29T16:01:25;5.63;;;1.92;;
21636;SDS011;10980;49.596;6.142;2022-07-29T16:04:47;5.47;;;1.50;;
21636;SDS011;10980;49.596;6.142;2022-07-29T16:08:09;3.05;;;1.80;;
21636;SDS011;10980;49.596;6.142;2022-07-29T16:11:30;3.05;;;1.67;;
21636;SDS011;10980;49.596;6.142;2022-07-29T16:14:52;2.85;;;1.58;;
21636;SDS011;10980;49.596;6.142;2022-07-29T16:18:14;2.60;;;1.40;;
21636;SDS011;10980;49.596;6.142;2022-07-29T16:21:36;7.00;;;1.95;;
21636;SDS011;10980;49.596;6.142;2022-07-29T16:24:59;3.92;;;1.40;;
21636;SDS011;10980;49.596;6.142;2022-07-29T16:28:20;16.30;;;2.72;;
21636;SDS011;10980;49.596;6.142;2022-07-29T16:31:42;4.95;;;1.55;;
21636;SDS011;10980;49.596;6.142;2022-07-29T16:35:05;5.30;;;1.67;;
21636;SDS011;10980;49.596;6.142;2022-07-29T16:38:27;3.22;;;1.73;;
21636;SDS011;10980;49.596;6.142;2022-07-29T16:41:49;4.57;;;1.80;;
21636;SDS011;10980;49.596;6.142;2022-07-29T16:45:11;3.63;;;1.70;;
21636;SDS011;10980;49.596;6.142;2022-07-29T16:48:33;9.25;;;1.55;;
21636;SDS011;10980;49.596;6.142;2022-07-29T16:51:57;2.53;;;1.40;;
21636;SDS011;10980;49.596;6.142;2022-07-29T16:55:19;4.53;;;1.35;;
21636;SDS011;10980;49.596;6.142;2022-07-29T16:58:41;6.07;;;1.27;;
21636;SDS011;10980;49.596;6.142;2022-07-29T17:02:04;2.60;;;1.40;;
21636;SDS011;10980;49.596;6.142;2022-07-29T17:05:26;4.35;;;1.20;;
21636;SDS011;10980;49.596;6.142;2022-07-29T17:08:48;2.38;;;1.10;;
21636;SDS011;10980;49.596;6.142;2022-07-29T17:12:09;4.15;;;1.63;;
21636;SDS011;10980;49.596;6.142;2022-07-29T17:15:31;2.45;;;1.40;;
21636;SDS011;10980;49.596;6.142;2022-07-29T17:18:56;5.10;;;1.40;;
21636;SDS011;10980;49.596;6.142;2022-07-29T17:22:18;3.75;;;1.33;;
21636;SDS011;10980;49.596;6.142;2022-07-29T17:25:40;8.73;;;1.77;;
21636;SDS011;10980;49.596;6.142;2022-07-29T17:29:02;2.28;;;1.38;;
21636;SDS011;10980;49.596;6.142;2022-07-29T17:32:24;1.88;;;1.30;;
21636;SDS011;10980;49.596;6.142;2022-07-29T17:35:45;2.42;;;1.30;;
21636;SDS011;10980;49.596;6.142;2022-07-29T17:39:26;2.10;;;1.50;;
21636;SDS011;10980;49.596;6.142;2022-07-29T17:42:47;6.70;;;1.77;;
21636;SDS011;10980;49.596;6.142;2022-07-29T17:46:09;4.00;;;1.60;;
21636;SDS011;10980;49.596;6.142;2022-07-29T17:49:31;2.08;;;1.58;;
21636;SDS011;10980;49.596;6.142;2022-07-29T17:52:56;6.40;;;2.00;;
21636;SDS011;10980;49.596;6.142;2022-07-29T17:56:18;3.45;;;1.90;;
21636;SDS011;10980;49.596;6.142;2022-07-29T17:59:40;4.07;;;1.80;;
21636;SDS011;10980;49.596;6.142;2022-07-29T18:03:01;3.65;;;1.95;;
21636;SDS011;10980;49.596;6.142;2022-07-29T18:06:23;3.53;;;2.15;;
21636;SDS011;10980;49.596;6.142;2022-07-29T18:09:45;5.53;;;1.95;;
21636;SDS011;10980;49.596;6.142;2022-07-29T18:13:07;9.95;;;2.15;;
21636;SDS011;10980;49.596;6.142;2022-07-29T18:16:29;3.15;;;1.58;;
21636;SDS011;10980;49.596;6.142;2022-07-29T18:19:51;8.13;;;1.77;;
21636;SDS011;10980;49.596;6.142;2022-07-29T18:23:13;6.18;;;1.92;;
21636;SDS011;10980;49.596;6.142;2022-07-29T18:26:37;4.30;;;2.20;;
21636;SDS011;10980;49.596;6.142;2022-07-29T18:29:59;4.82;;;1.95;;
21636;SDS011;10980;49.596;6.142;2022-07-29T18:33:25;4.75;;;2.13;;
21636;SDS011;10980;49.596;6.142;2022-07-29T18:36:47;5.55;;;2.40;;
21636;SDS011;10980;49.596;6.142;2022-07-29T18:40:09;3.45;;;2.00;;
21636;SDS011;10980;49.596;6.142;2022-07-29T18:43:31;2.88;;;2.03;;
21636;SDS011;10980;49.596;6.142;2022-07-29T18:46:53;4.90;;;2.35;;
21636;SDS011;10980;49.596;6.142;2022-07-29T18:50:16;3.95;;;1.70;;
21636;SDS011;10980;49.596;6.142;2022-07-29T18:53:39;6.03;;;2.03;;
21636;SDS011;10980;49.596;6.142;2022-07-29T18:57:01;8.15;;;2.00;;
21636;SDS011;10980;49.596;6.142;2022-07-29T19:00:43;3.33;;;2.10;;
21636;SDS011;10980;49.596;6.142;2022-07-29T19:04:05;4.55;;;3.08;;
21636;SDS011;10980;49.596;6.142;2022-07-29T19:07:26;6.13;;;2.20;;
21636;SDS011;10980;49.596;6.142;2022-07-29T19:10:49;3.45;;;2.10;;
21636;SDS011;10980;49.596;6.142;2022-07-29T19:14:11;6.60;;;2.53;;
21636;SDS011;10980;49.596;6.142;2022-07-29T19:17:33;8.40;;;1.80;;
21636;SDS011;10980;49.596;6.142;2022-07-29T19:20:56;3.55;;;1.98;;
21636;SDS011;10980;49.596;6.142;2022-07-29T19:24:18;4.25;;;2.15;;
21636;SDS011;10980;49.596;6.142;2022-07-29T19:27:39;7.10;;;1.98;;
21636;SDS011;10980;49.596;6.142;2022-07-29T19:31:01;3.75;;;2.10;;
21636;SDS011;10980;49.596;6.142;2022-07-29T19:34:23;7.25;;;2.53;;
21636;SDS011;10980;49.596;6.142;2022-07-29T19:37:45;4.45;;;2.55;;
21636;SDS011;10980;49.596;6.142;2022-07-29T19:41:07;3.55;;;2.10;;
21636;SDS011;10980;49.596;6.142;2022-07-29T19:44:29;4.22;;;2.20;;
21636;SDS011;10980;49.596;6.142;2022-07-29T19:47:51;4.95;;;2.17;;
21636;SDS011;10980;49.596;6.142;2022-07-29T19:51:21;2.92;;;1.77;;
21636;SDS011;10980;49.596;6.142;2022-07-29T19:54:43;5.53;;;2.78;;
21636;SDS011;10980;49.596;6.142;2022-07-29T19:58:05;3.58;;;2.17;;
21636;SDS011;10980;49.596;6.142;2022-07-29T20:01:28;3.22;;;1.83;;
21636;SDS011;10980;49.596;6.142;2022-07-29T20:04:52;2.60;;;1.90;;
21636;SDS011;10980;49.596;6.142;2022-07-29T20:08:13;3.30;;;2.00;;
21636;SDS011;10980;49.596;6.142;2022-07-29T20:11:35;5.88;;;2.30;;
21636;SDS011;10980;49.596;6.142;2022-07-29T20:14:58;5.90;;;1.80;;
21636;SDS011;10980;49.596;6.142;2022-07-29T20:18:20;2.95;;;1.88;;
21636;SDS011;10980;49.596;6.142;2022-07-29T20:21:42;3.00;;;2.03;;
21636;SDS011;10980;49.596;6.142;2022-07-29T20:25:05;3.85;;;2.15;;
21636;SDS011;10980;49.596;6.142;2022-07-29T20:28:29;2.20;;;1.85;;
21636;SDS011;10980;49.596;6.142;2022-07-29T20:31:51;5.47;;;2.00;;
21636;SDS011;10980;49.596;6.142;2022-07-29T20:35:16;5.05;;;2.30;;
21636;SDS011;10980;49.596;6.142;2022-07-29T20:38:40;4.82;;;2.22;;
21636;SDS011;10980;49.596;6.142;2022-07-29T20:42:02;3.75;;;2.05;;
21636;SDS011;10980;49.596;6.142;2022-07-29T20:45:25;5.10;;;2.30;;
21636;SDS011;10980;49.596;6.142;2022-07-29T20:48:46;5.88;;;2.60;;
21636;SDS011;10980;49.596;6.142;2022-07-29T20:52:08;6.97;;;2.17;;
21636;SDS011;10980;49.596;6.142;2022-07-29T20:55:30;6.30;;;2.83;;
21636;SDS011;10980;49.596;6.142;2022-07-29T20:58:52;5.50;;;2.53;;